createdAt,value
2017-08-20T00:00:57.317Z,0
2017-08-20T00:01:57.953Z,0
2017-08-20T00:02:58.246Z,0
2017-08-20T00:03:58.259Z,0
2017-08-20T00:04:58.248Z,0
2017-08-20T00:05:57.901Z,0
2017-08-20T00:06:57.890Z,0
2017-08-20T00:07:57.897Z,0
2017-08-20T00:08:57.577Z,0
2017-08-20T00:09:57.916Z,0
2017-08-20T00:10:58.202Z,0
2017-08-20T00:11:58.175Z,0
2017-08-20T00:12:57.522Z,0
2017-08-20T00:13:57.881Z,0
2017-08-20T00:14:57.188Z,0
2017-08-20T00:15:58.135Z,0
2017-08-20T00:16:58.142Z,0
2017-08-20T00:17:58.118Z,0
2017-08-20T00:18:57.794Z,0
2017-08-20T00:19:57.776Z,0
2017-08-20T00:20:57.448Z,0
2017-08-20T00:21:57.484Z,0
2017-08-20T00:22:58.076Z,0
2017-08-20T00:23:57.440Z,0
2017-08-20T00:24:57.138Z,0
2017-08-20T00:25:57.723Z,0
2017-08-20T00:26:58.049Z,0
2017-08-20T00:27:58.058Z,0
2017-08-20T00:28:57.713Z,0
2017-08-20T00:29:57.714Z,0
2017-08-20T00:30:57.048Z,0
2017-08-20T00:31:58.014Z,0
2017-08-20T00:32:57.996Z,0
2017-08-20T00:33:58.000Z,0
2017-08-20T00:34:57.700Z,0
2017-08-20T00:35:57.641Z,0
2017-08-20T00:36:57.637Z,0
2017-08-20T00:37:56.998Z,0
2017-08-20T00:38:57.626Z,0
2017-08-20T00:39:57.285Z,0
2017-08-20T00:40:57.598Z,0
2017-08-20T00:41:57.919Z,0
2017-08-20T00:42:57.575Z,0
2017-08-20T00:43:57.588Z,0
2017-08-20T00:44:57.895Z,0
2017-08-20T00:45:58.553Z,0
2017-08-20T00:46:57.248Z,0
2017-08-20T00:47:57.539Z,0
2017-08-20T00:48:57.857Z,0
2017-08-20T00:49:57.544Z,0
2017-08-20T00:50:57.184Z,0
2017-08-20T00:51:57.194Z,0
2017-08-20T00:52:57.170Z,0
2017-08-20T00:53:57.164Z,0
2017-08-20T00:54:57.798Z,0
2017-08-20T00:55:57.492Z,0
2017-08-20T00:56:57.469Z,0
2017-08-20T00:57:57.473Z,0
2017-08-20T00:58:57.770Z,0
2017-08-20T00:59:57.797Z,0
2017-08-20T01:00:57.110Z,0
2017-08-20T01:01:57.427Z,0
2017-08-20T01:02:57.426Z,0
2017-08-20T01:03:57.072Z,0
2017-08-20T01:04:56.751Z,0
2017-08-20T01:05:57.391Z,0
2017-08-20T01:06:57.392Z,0
2017-08-20T01:07:56.716Z,0
2017-08-20T01:08:56.720Z,0
2017-08-20T01:09:57.360Z,0
2017-08-20T01:10:57.650Z,0
2017-08-20T01:11:57.352Z,0
2017-08-20T01:12:57.631Z,0
2017-08-20T01:13:57.311Z,0
2017-08-20T01:14:57.321Z,0
2017-08-20T01:15:57.298Z,0
2017-08-20T01:16:57.603Z,0
2017-08-20T01:17:57.597Z,0
2017-08-20T01:18:56.939Z,0
2017-08-20T01:19:56.982Z,0
2017-08-20T01:20:57.250Z,0
2017-08-20T01:21:57.237Z,0
2017-08-20T01:22:57.228Z,0
2017-08-20T01:23:57.215Z,0
2017-08-20T01:24:57.202Z,0
2017-08-20T01:25:57.523Z,0
2017-08-20T01:26:57.510Z,0
2017-08-20T01:27:56.559Z,0
2017-08-20T01:28:57.494Z,0
2017-08-20T01:29:57.224Z,0
2017-08-20T01:30:57.495Z,0
2017-08-20T01:31:57.142Z,0
2017-08-20T01:32:56.834Z,0
2017-08-20T01:33:57.453Z,0
2017-08-20T01:34:57.127Z,0
2017-08-20T01:35:57.448Z,0
2017-08-20T01:36:57.095Z,0
2017-08-20T01:37:56.450Z,0
2017-08-20T01:38:56.768Z,0
2017-08-20T01:39:56.760Z,0
2017-08-20T01:40:56.748Z,0
2017-08-20T01:41:57.054Z,0
2017-08-20T01:42:56.721Z,0
2017-08-20T01:43:56.421Z,0
2017-08-20T01:44:57.030Z,0
2017-08-20T01:45:56.697Z,0
2017-08-20T01:46:56.699Z,0
2017-08-20T01:47:56.703Z,0
2017-08-20T01:48:56.678Z,0
2017-08-20T01:49:57.018Z,0
2017-08-20T01:50:56.995Z,0
2017-08-20T01:51:56.654Z,0
2017-08-20T01:52:56.955Z,0
2017-08-20T01:53:56.623Z,0
2017-08-20T01:54:57.133Z,0
2017-08-20T01:55:56.928Z,0
2017-08-20T01:56:57.238Z,0
2017-08-20T01:57:56.605Z,0
2017-08-20T01:58:56.581Z,0
2017-08-20T01:59:56.579Z,0
2017-08-20T02:00:56.906Z,0
2017-08-20T02:01:56.869Z,0
2017-08-20T02:02:57.183Z,0
2017-08-20T02:03:57.176Z,0
2017-08-20T02:04:56.881Z,0
2017-08-20T02:05:56.843Z,0
2017-08-20T02:06:56.825Z,0
2017-08-20T02:07:56.524Z,0
2017-08-20T02:08:57.123Z,0
2017-08-20T02:09:57.149Z,0
2017-08-20T02:10:56.471Z,0
2017-08-20T02:11:57.108Z,0
2017-08-20T02:12:56.124Z,0
2017-08-20T02:13:57.113Z,0
2017-08-20T02:14:56.454Z,0
2017-08-20T02:15:57.067Z,0
2017-08-20T02:16:56.760Z,0
2017-08-20T02:17:56.732Z,0
2017-08-20T02:18:56.725Z,0
2017-08-20T02:19:56.741Z,0
2017-08-20T02:20:57.033Z,0
2017-08-20T02:21:57.007Z,0
2017-08-20T02:22:56.353Z,0
2017-08-20T02:23:56.681Z,0
2017-08-20T02:24:56.976Z,0
2017-08-20T02:25:56.969Z,0
2017-08-20T02:26:56.322Z,0
2017-08-20T02:27:56.963Z,0
2017-08-20T02:28:56.968Z,0
2017-08-20T02:29:56.622Z,0
2017-08-20T02:30:56.933Z,0
2017-08-20T02:31:56.938Z,0
2017-08-20T02:32:56.286Z,0
2017-08-20T02:33:56.603Z,0
2017-08-20T02:34:56.569Z,0
2017-08-20T02:35:56.600Z,0
2017-08-20T02:36:56.566Z,0
2017-08-20T02:37:56.578Z,0
2017-08-20T02:38:56.528Z,0
2017-08-20T02:39:56.519Z,0
2017-08-20T02:40:56.516Z,0
2017-08-20T02:41:56.203Z,0
2017-08-20T02:42:56.512Z,0
2017-08-20T02:43:56.500Z,0
2017-08-20T02:44:56.483Z,0
2017-08-20T02:45:56.488Z,0
2017-08-20T02:46:56.490Z,0
2017-08-20T02:47:56.500Z,0
2017-08-20T02:48:56.447Z,0
2017-08-20T02:49:56.460Z,0
2017-08-20T02:50:56.758Z,0
2017-08-20T02:51:56.453Z,0
2017-08-20T02:52:56.747Z,0
2017-08-20T02:53:56.413Z,0
2017-08-20T02:54:56.395Z,0
2017-08-20T02:55:55.761Z,0
2017-08-20T02:56:56.367Z,0
2017-08-20T02:57:56.370Z,0
2017-08-20T02:58:56.700Z,0
2017-08-20T02:59:56.679Z,0
2017-08-20T03:00:56.339Z,0
2017-08-20T03:01:56.324Z,0
2017-08-20T03:02:56.312Z,0
2017-08-20T03:03:55.996Z,0
2017-08-20T03:04:56.683Z,0
2017-08-20T03:05:56.604Z,0
2017-08-20T03:06:56.275Z,0
2017-08-20T03:07:56.597Z,0
2017-08-20T03:08:56.256Z,0
2017-08-20T03:09:56.568Z,0
2017-08-20T03:10:56.599Z,0
2017-08-20T03:11:56.551Z,0
2017-08-20T03:12:55.608Z,0
2017-08-20T03:13:56.231Z,0
2017-08-20T03:14:56.228Z,0
2017-08-20T03:15:55.890Z,0
2017-08-20T03:16:55.868Z,0
2017-08-20T03:17:55.857Z,0
2017-08-20T03:18:55.535Z,0
2017-08-20T03:19:55.837Z,0
2017-08-20T03:20:56.481Z,0
2017-08-20T03:21:56.460Z,0
2017-08-20T03:22:56.451Z,0
2017-08-20T03:23:55.817Z,0
2017-08-20T03:24:56.121Z,0
2017-08-20T03:25:55.786Z,0
2017-08-20T03:26:56.108Z,0
2017-08-20T03:27:56.107Z,0
2017-08-20T03:28:55.444Z,0
2017-08-20T03:29:56.093Z,0
2017-08-20T03:30:56.387Z,0
2017-08-20T03:31:56.062Z,0
2017-08-20T03:32:56.390Z,0
2017-08-20T03:33:56.060Z,0
2017-08-20T03:34:56.038Z,0
2017-08-20T03:35:56.350Z,0
2017-08-20T03:36:55.711Z,0
2017-08-20T03:37:56.060Z,0
2017-08-20T03:38:55.684Z,0
2017-08-20T03:39:55.666Z,0
2017-08-20T03:40:55.979Z,0
2017-08-20T03:41:55.669Z,0
2017-08-20T03:42:55.975Z,0
2017-08-20T03:43:55.958Z,0
2017-08-20T03:44:56.261Z,0
2017-08-20T03:45:56.269Z,0
2017-08-20T03:46:55.944Z,0
2017-08-20T03:47:55.930Z,0
2017-08-20T03:48:55.916Z,0
2017-08-20T03:49:56.218Z,0
2017-08-20T03:50:55.569Z,0
2017-08-20T03:51:55.572Z,0
2017-08-20T03:52:55.902Z,0
2017-08-20T03:53:56.185Z,0
2017-08-20T03:54:56.208Z,0
2017-08-20T03:55:56.182Z,0
2017-08-20T03:56:56.159Z,0
2017-08-20T03:57:55.207Z,0
2017-08-20T03:58:55.838Z,0
2017-08-20T03:59:55.819Z,0
2017-08-20T04:00:55.508Z,0
2017-08-20T04:01:55.484Z,0
2017-08-20T04:02:55.791Z,0
2017-08-20T04:03:55.779Z,0
2017-08-20T04:04:55.774Z,0
2017-08-20T04:05:55.767Z,5
2017-08-20T04:06:55.440Z,5
2017-08-20T04:07:55.109Z,5
2017-08-20T04:08:56.062Z,5
2017-08-20T04:09:55.736Z,5
2017-08-20T04:10:55.754Z,5
2017-08-20T04:11:56.057Z,5
2017-08-20T04:12:55.758Z,5
2017-08-20T04:13:56.053Z,5
2017-08-20T04:14:55.377Z,10
2017-08-20T04:15:55.681Z,10
2017-08-20T04:16:55.031Z,10
2017-08-20T04:17:55.989Z,10
2017-08-20T04:18:55.678Z,10
2017-08-20T04:19:55.340Z,10
2017-08-20T04:20:55.976Z,10
2017-08-20T04:21:55.654Z,10
2017-08-20T04:22:55.630Z,10
2017-08-20T04:23:55.628Z,15
2017-08-20T04:24:55.936Z,15
2017-08-20T04:25:55.604Z,15
2017-08-20T04:26:55.962Z,15
2017-08-20T04:27:55.604Z,20
2017-08-20T04:28:55.577Z,20
2017-08-20T04:29:55.593Z,20
2017-08-20T04:30:55.567Z,25
2017-08-20T04:31:55.903Z,25
2017-08-20T04:32:55.558Z,25
2017-08-20T04:33:55.540Z,25
2017-08-20T04:34:55.232Z,30
2017-08-20T04:35:55.850Z,30
2017-08-20T04:36:55.848Z,30
2017-08-20T04:37:55.222Z,35
2017-08-20T04:38:55.190Z,40
2017-08-20T04:39:55.832Z,45
2017-08-20T04:40:55.805Z,50
2017-08-20T04:41:55.171Z,55
2017-08-20T04:42:55.799Z,55
2017-08-20T04:43:55.789Z,55
2017-08-20T04:44:54.831Z,60
2017-08-20T04:45:55.151Z,60
2017-08-20T04:46:55.438Z,65
2017-08-20T04:47:55.422Z,65
2017-08-20T04:48:55.443Z,65
2017-08-20T04:49:55.411Z,70
2017-08-20T04:50:55.420Z,65
2017-08-20T04:51:55.411Z,65
2017-08-20T04:52:55.763Z,65
2017-08-20T04:53:55.718Z,65
2017-08-20T04:54:55.053Z,75
2017-08-20T04:55:54.748Z,70
2017-08-20T04:56:55.357Z,75
2017-08-20T04:57:55.039Z,70
2017-08-20T04:58:55.027Z,70
2017-08-20T04:59:55.652Z,75
2017-08-20T05:00:55.384Z,85
2017-08-20T05:01:55.340Z,85
2017-08-20T05:02:55.635Z,85
2017-08-20T05:03:55.636Z,85
2017-08-20T05:04:55.626Z,90
2017-08-20T05:05:54.972Z,90
2017-08-20T05:06:55.607Z,90
2017-08-20T05:07:54.971Z,90
2017-08-20T05:08:54.974Z,90
2017-08-20T05:09:54.979Z,85
2017-08-20T05:10:55.572Z,80
2017-08-20T05:11:55.293Z,75
2017-08-20T05:12:55.241Z,75
2017-08-20T05:13:55.573Z,80
2017-08-20T05:14:54.907Z,85
2017-08-20T05:15:55.228Z,80
2017-08-20T05:16:55.242Z,80
2017-08-20T05:17:55.526Z,70
2017-08-20T05:18:54.926Z,65
2017-08-20T05:19:55.197Z,65
2017-08-20T05:20:55.205Z,70
2017-08-20T05:21:55.513Z,75
2017-08-20T05:22:55.487Z,85
2017-08-20T05:23:55.481Z,80
2017-08-20T05:24:55.160Z,75
2017-08-20T05:25:55.173Z,75
2017-08-20T05:26:55.473Z,70
2017-08-20T05:27:54.814Z,70
2017-08-20T05:28:55.469Z,75
2017-08-20T05:29:55.451Z,90
2017-08-20T05:30:54.791Z,115
2017-08-20T05:31:55.139Z,125
2017-08-20T05:32:55.418Z,130
2017-08-20T05:33:55.104Z,125
2017-08-20T05:34:55.430Z,140
2017-08-20T05:35:55.095Z,135
2017-08-20T05:36:55.111Z,130
2017-08-20T05:37:55.414Z,130
2017-08-20T05:38:55.383Z,140
2017-08-20T05:39:55.372Z,140
2017-08-20T05:40:55.071Z,135
2017-08-20T05:41:55.356Z,130
2017-08-20T05:42:55.050Z,140
2017-08-20T05:43:54.708Z,155
2017-08-20T05:44:54.405Z,150
2017-08-20T05:45:55.024Z,140
2017-08-20T05:46:54.684Z,135
2017-08-20T05:47:54.373Z,155
2017-08-20T05:48:54.994Z,165
2017-08-20T05:49:55.329Z,160
2017-08-20T05:50:55.303Z,155
2017-08-20T05:51:55.297Z,145
2017-08-20T05:52:54.974Z,135
2017-08-20T05:53:55.290Z,125
2017-08-20T05:54:54.629Z,125
2017-08-20T05:55:54.639Z,135
2017-08-20T05:56:54.941Z,150
2017-08-20T05:57:54.936Z,155
2017-08-20T05:58:55.251Z,155
2017-08-20T05:59:54.926Z,160
2017-08-20T06:00:54.922Z,150
2017-08-20T06:01:54.587Z,160
2017-08-20T06:02:54.597Z,170
2017-08-20T06:03:54.895Z,180
2017-08-20T06:04:54.909Z,185
2017-08-20T06:05:55.211Z,200
2017-08-20T06:06:54.877Z,185
2017-08-20T06:07:54.876Z,170
2017-08-20T06:08:55.489Z,160
2017-08-20T06:09:54.532Z,155
2017-08-20T06:10:55.172Z,150
2017-08-20T06:11:54.848Z,140
2017-08-20T06:12:54.515Z,135
2017-08-20T06:13:55.154Z,125
2017-08-20T06:14:54.822Z,120
2017-08-20T06:15:54.825Z,120
2017-08-20T06:16:54.826Z,125
2017-08-20T06:17:54.805Z,125
2017-08-20T06:18:54.500Z,125
2017-08-20T06:19:54.805Z,125
2017-08-20T06:20:54.794Z,125
2017-08-20T06:21:54.826Z,125
2017-08-20T06:22:55.124Z,125
2017-08-20T06:23:55.113Z,130
2017-08-20T06:24:54.445Z,130
2017-08-20T06:25:55.079Z,135
2017-08-20T06:26:54.749Z,140
2017-08-20T06:27:54.765Z,140
2017-08-20T06:28:54.741Z,150
2017-08-20T06:29:55.066Z,165
2017-08-20T06:30:54.746Z,190
2017-08-20T06:31:55.080Z,210
2017-08-20T06:32:54.712Z,240
2017-08-20T06:33:54.713Z,270
2017-08-20T06:34:55.082Z,305
2017-08-20T06:35:54.694Z,335
2017-08-20T06:36:54.700Z,355
2017-08-20T06:37:54.361Z,355
2017-08-20T06:38:55.012Z,340
2017-08-20T06:39:54.698Z,325
2017-08-20T06:40:54.673Z,315
2017-08-20T06:41:54.700Z,310
2017-08-20T06:42:54.689Z,305
2017-08-20T06:43:54.679Z,305
2017-08-20T06:44:54.322Z,305
2017-08-20T06:45:54.646Z,295
2017-08-20T06:46:54.306Z,290
2017-08-20T06:47:54.643Z,285
2017-08-20T06:48:54.645Z,290
2017-08-20T06:49:54.619Z,305
2017-08-20T06:50:54.928Z,325
2017-08-20T06:51:54.632Z,330
2017-08-20T06:52:54.931Z,315
2017-08-20T06:53:54.594Z,290
2017-08-20T06:54:54.623Z,275
2017-08-20T06:55:54.579Z,265
2017-08-20T06:56:54.596Z,265
2017-08-20T06:57:54.889Z,265
2017-08-20T06:58:54.893Z,260
2017-08-20T06:59:54.244Z,260
2017-08-20T07:00:54.578Z,260
2017-08-20T07:01:54.248Z,255
2017-08-20T07:02:54.879Z,250
2017-08-20T07:03:54.556Z,240
2017-08-20T07:04:54.217Z,230
2017-08-20T07:05:54.572Z,230
2017-08-20T07:06:54.896Z,235
2017-08-20T07:07:54.851Z,240
2017-08-20T07:08:53.876Z,240
2017-08-20T07:09:54.518Z,255
2017-08-20T07:10:54.540Z,290
2017-08-20T07:11:54.189Z,335
2017-08-20T07:12:54.505Z,330
2017-08-20T07:13:54.192Z,305
2017-08-20T07:14:53.861Z,290
2017-08-20T07:15:54.808Z,280
2017-08-20T07:16:54.502Z,285
2017-08-20T07:17:54.800Z,270
2017-08-20T07:18:54.487Z,265
2017-08-20T07:19:54.467Z,260
2017-08-20T07:20:54.518Z,240
2017-08-20T07:21:54.137Z,225
2017-08-20T07:22:54.471Z,200
2017-08-20T07:23:54.456Z,190
2017-08-20T07:24:54.777Z,180
2017-08-20T07:25:54.771Z,190
2017-08-20T07:26:54.452Z,185
2017-08-20T07:27:54.432Z,185
2017-08-20T07:28:54.112Z,175
2017-08-20T07:29:54.752Z,185
2017-08-20T07:30:54.437Z,185
2017-08-20T07:31:54.428Z,185
2017-08-20T07:32:54.099Z,180
2017-08-20T07:33:54.089Z,160
2017-08-20T07:34:54.092Z,185
2017-08-20T07:35:54.722Z,180
2017-08-20T07:36:54.747Z,180
2017-08-20T07:37:54.415Z,180
2017-08-20T07:38:54.408Z,180
2017-08-20T07:39:54.719Z,180
2017-08-20T07:40:54.389Z,180
2017-08-20T07:41:54.394Z,180
2017-08-20T07:42:54.702Z,175
2017-08-20T07:43:54.079Z,180
2017-08-20T07:44:54.379Z,180
2017-08-20T07:45:54.389Z,175
2017-08-20T07:46:54.062Z,170
2017-08-20T07:47:54.397Z,175
2017-08-20T07:48:54.386Z,175
2017-08-20T07:49:54.365Z,175
2017-08-20T07:50:54.680Z,175
2017-08-20T07:51:54.371Z,175
2017-08-20T07:52:53.716Z,175
2017-08-20T07:53:54.053Z,175
2017-08-20T07:54:54.374Z,175
2017-08-20T07:55:54.381Z,175
2017-08-20T07:56:54.393Z,175
2017-08-20T07:57:53.736Z,175
2017-08-20T07:58:54.341Z,180
2017-08-20T07:59:54.339Z,180
2017-08-20T08:00:54.680Z,180
2017-08-20T08:01:54.683Z,175
2017-08-20T08:02:54.340Z,165
2017-08-20T08:03:54.353Z,165
2017-08-20T08:04:54.011Z,170
2017-08-20T08:05:53.685Z,180
2017-08-20T08:06:54.692Z,185
2017-08-20T08:07:54.667Z,215
2017-08-20T08:08:53.680Z,225
2017-08-20T08:09:54.014Z,235
2017-08-20T08:10:54.314Z,260
2017-08-20T08:11:54.017Z,285
2017-08-20T08:12:53.988Z,305
2017-08-20T08:13:53.673Z,290
2017-08-20T08:14:53.686Z,295
2017-08-20T08:15:53.682Z,280
2017-08-20T08:16:54.328Z,255
2017-08-20T08:17:54.625Z,245
2017-08-20T08:18:54.616Z,240
2017-08-20T08:19:53.972Z,225
2017-08-20T08:20:53.687Z,200
2017-08-20T08:21:54.286Z,190
2017-08-20T08:22:54.630Z,190
2017-08-20T08:23:54.279Z,185
2017-08-20T08:24:54.599Z,180
2017-08-20T08:25:54.307Z,180
2017-08-20T08:26:54.315Z,200
2017-08-20T08:27:54.628Z,180
2017-08-20T08:28:53.624Z,180
2017-08-20T08:29:53.984Z,175
2017-08-20T08:30:54.602Z,180
2017-08-20T08:31:54.259Z,205
2017-08-20T08:32:54.290Z,215
2017-08-20T08:33:54.570Z,215
2017-08-20T08:34:54.626Z,220
2017-08-20T08:35:53.925Z,240
2017-08-20T08:36:54.245Z,270
2017-08-20T08:37:54.240Z,280
2017-08-20T08:38:54.558Z,265
2017-08-20T08:39:53.906Z,260
2017-08-20T08:40:53.587Z,250
2017-08-20T08:41:53.968Z,235
2017-08-20T08:42:54.238Z,230
2017-08-20T08:43:53.906Z,225
2017-08-20T08:44:53.920Z,220
2017-08-20T08:45:54.653Z,215
2017-08-20T08:46:54.239Z,240
2017-08-20T08:47:53.890Z,245
2017-08-20T08:48:54.217Z,265
2017-08-20T08:49:54.217Z,305
2017-08-20T08:50:54.528Z,340
2017-08-20T08:51:54.566Z,365
2017-08-20T08:52:54.198Z,370
2017-08-20T08:53:53.568Z,355
2017-08-20T08:54:53.911Z,315
2017-08-20T08:55:53.882Z,290
2017-08-20T08:56:54.505Z,275
2017-08-20T08:57:54.555Z,265
2017-08-20T08:58:54.508Z,280
2017-08-20T08:59:54.228Z,290
2017-08-20T09:00:54.563Z,285
2017-08-20T09:01:54.188Z,250
2017-08-20T09:02:54.493Z,235
2017-08-20T09:03:53.853Z,245
2017-08-20T09:04:53.877Z,245
2017-08-20T09:05:53.531Z,240
2017-08-20T09:06:53.537Z,250
2017-08-20T09:07:53.846Z,265
2017-08-20T09:08:54.164Z,290
2017-08-20T09:09:53.855Z,310
2017-08-20T09:10:53.881Z,325
2017-08-20T09:11:54.175Z,320
2017-08-20T09:12:54.175Z,315
2017-08-20T09:13:54.498Z,310
2017-08-20T09:14:54.472Z,340
2017-08-20T09:15:54.160Z,325
2017-08-20T09:16:54.485Z,320
2017-08-20T09:17:54.466Z,350
2017-08-20T09:18:54.148Z,365
2017-08-20T09:19:54.520Z,375
2017-08-20T09:20:54.502Z,385
2017-08-20T09:21:53.839Z,395
2017-08-20T09:22:54.455Z,405
2017-08-20T09:23:53.827Z,420
2017-08-20T09:24:53.811Z,450
2017-08-20T09:25:54.134Z,455
2017-08-20T09:26:53.804Z,470
2017-08-20T09:27:54.124Z,430
2017-08-20T09:28:53.823Z,380
2017-08-20T09:29:54.124Z,350
2017-08-20T09:30:54.133Z,335
2017-08-20T09:31:53.800Z,350
2017-08-20T09:32:54.139Z,365
2017-08-20T09:33:53.533Z,375
2017-08-20T09:34:54.122Z,370
2017-08-20T09:35:54.454Z,345
2017-08-20T09:36:53.789Z,335
2017-08-20T09:37:54.129Z,315
2017-08-20T09:38:54.112Z,300
2017-08-20T09:39:53.795Z,290
2017-08-20T09:40:54.116Z,260
2017-08-20T09:41:54.113Z,265
2017-08-20T09:42:53.796Z,295
2017-08-20T09:43:53.151Z,320
2017-08-20T09:44:53.790Z,330
2017-08-20T09:45:54.108Z,335
2017-08-20T09:46:53.487Z,305
2017-08-20T09:47:54.436Z,320
2017-08-20T09:48:54.104Z,310
2017-08-20T09:49:53.775Z,335
2017-08-20T09:50:53.793Z,370
2017-08-20T09:51:53.792Z,405
2017-08-20T09:52:54.116Z,430
2017-08-20T09:53:53.768Z,460
2017-08-20T09:54:54.104Z,450
2017-08-20T09:55:53.798Z,455
2017-08-20T09:56:54.458Z,455
2017-08-20T09:57:54.086Z,460
2017-08-20T09:58:54.427Z,450
2017-08-20T09:59:54.419Z,435
2017-08-20T10:00:54.082Z,410
2017-08-20T10:01:54.410Z,390
2017-08-20T10:02:53.810Z,380
2017-08-20T10:03:53.438Z,375
2017-08-20T10:04:53.782Z,360
2017-08-20T10:05:54.082Z,350
2017-08-20T10:06:54.091Z,355
2017-08-20T10:07:53.751Z,375
2017-08-20T10:08:54.419Z,390
2017-08-20T10:09:53.757Z,385
2017-08-20T10:10:54.422Z,370
2017-08-20T10:11:53.745Z,360
2017-08-20T10:12:54.071Z,350
2017-08-20T10:13:54.063Z,325
2017-08-20T10:14:53.746Z,305
2017-08-20T10:15:54.070Z,285
2017-08-20T10:16:53.764Z,275
2017-08-20T10:17:54.069Z,275
2017-08-20T10:18:54.083Z,275
2017-08-20T10:19:54.089Z,270
2017-08-20T10:20:54.061Z,270
2017-08-20T10:21:53.742Z,270
2017-08-20T10:22:54.069Z,275
2017-08-20T10:23:54.058Z,275
2017-08-20T10:24:54.386Z,280
2017-08-20T10:25:53.741Z,325
2017-08-20T10:26:53.417Z,330
2017-08-20T10:27:54.042Z,320
2017-08-20T10:28:54.362Z,325
2017-08-20T10:29:53.727Z,350
2017-08-20T10:30:54.030Z,385
2017-08-20T10:31:54.039Z,430
2017-08-20T10:32:54.358Z,425
2017-08-20T10:33:54.034Z,440
2017-08-20T10:34:54.041Z,445
2017-08-20T10:35:54.356Z,450
2017-08-20T10:36:54.350Z,450
2017-08-20T10:37:53.720Z,435
2017-08-20T10:38:54.366Z,410
2017-08-20T10:39:53.701Z,380
2017-08-20T10:40:54.041Z,350
2017-08-20T10:41:53.706Z,305
2017-08-20T10:42:54.344Z,270
2017-08-20T10:43:54.021Z,250
2017-08-20T10:44:53.697Z,235
2017-08-20T10:45:54.023Z,235
2017-08-20T10:46:53.384Z,240
2017-08-20T10:47:53.390Z,245
2017-08-20T10:48:54.344Z,255
2017-08-20T10:49:53.710Z,260
2017-08-20T10:50:54.327Z,265
2017-08-20T10:51:54.023Z,265
2017-08-20T10:52:53.705Z,255
2017-08-20T10:53:53.698Z,245
2017-08-20T10:54:54.323Z,240
2017-08-20T10:55:54.008Z,230
2017-08-20T10:56:54.005Z,230
2017-08-20T10:57:54.328Z,240
2017-08-20T10:58:54.005Z,250
2017-08-20T10:59:54.332Z,260
2017-08-20T11:00:53.986Z,260
2017-08-20T11:01:53.362Z,265
2017-08-20T11:02:53.987Z,265
2017-08-20T11:03:53.977Z,270
2017-08-20T11:04:54.001Z,285
2017-08-20T11:05:53.651Z,300
2017-08-20T11:06:53.660Z,330
2017-08-20T11:07:54.289Z,360
2017-08-20T11:08:53.655Z,380
2017-08-20T11:09:54.288Z,400
2017-08-20T11:10:54.293Z,410
2017-08-20T11:11:54.289Z,395
2017-08-20T11:12:54.286Z,380
2017-08-20T11:13:53.964Z,365
2017-08-20T11:14:53.951Z,335
2017-08-20T11:15:54.292Z,310
2017-08-20T11:16:53.624Z,275
2017-08-20T11:17:53.974Z,255
2017-08-20T11:18:53.930Z,235
2017-08-20T11:19:53.614Z,215
2017-08-20T11:20:53.615Z,195
2017-08-20T11:21:53.947Z,190
2017-08-20T11:22:53.921Z,185
2017-08-20T11:23:54.249Z,185
2017-08-20T11:24:54.245Z,195
2017-08-20T11:25:54.240Z,205
2017-08-20T11:26:53.604Z,200
2017-08-20T11:27:53.599Z,210
2017-08-20T11:28:53.593Z,220
2017-08-20T11:29:54.228Z,225
2017-08-20T11:30:53.934Z,235
2017-08-20T11:31:53.907Z,245
2017-08-20T11:32:53.578Z,260
2017-08-20T11:33:53.570Z,265
2017-08-20T11:34:54.237Z,275
2017-08-20T11:35:53.888Z,285
2017-08-20T11:36:53.880Z,295
2017-08-20T11:37:54.216Z,300
2017-08-20T11:38:54.206Z,300
2017-08-20T11:39:54.191Z,305
2017-08-20T11:40:53.544Z,315
2017-08-20T11:41:53.881Z,315
2017-08-20T11:42:53.861Z,320
2017-08-20T11:43:54.210Z,315
2017-08-20T11:44:53.532Z,310
2017-08-20T11:45:53.870Z,310
2017-08-20T11:46:53.855Z,320
2017-08-20T11:47:53.541Z,335
2017-08-20T11:48:53.858Z,360
2017-08-20T11:49:53.839Z,385
2017-08-20T11:50:53.539Z,415
2017-08-20T11:51:53.869Z,445
2017-08-20T11:52:53.510Z,465
2017-08-20T11:53:53.507Z,490
2017-08-20T11:54:54.140Z,490
2017-08-20T11:55:53.809Z,495
2017-08-20T11:56:53.501Z,500
2017-08-20T11:57:53.808Z,495
2017-08-20T11:58:53.806Z,495
2017-08-20T11:59:54.118Z,490
2017-08-20T12:00:54.367Z,485
2017-08-20T12:01:53.832Z,475
2017-08-20T12:02:53.504Z,465
2017-08-20T12:03:53.791Z,455
2017-08-20T12:04:53.470Z,450
2017-08-20T12:05:53.805Z,445
2017-08-20T12:06:54.153Z,445
2017-08-20T12:07:54.121Z,440
2017-08-20T12:08:53.801Z,425
2017-08-20T12:09:53.465Z,415
2017-08-20T12:10:53.773Z,405
2017-08-20T12:11:53.768Z,395
2017-08-20T12:12:54.090Z,385
2017-08-20T12:13:53.444Z,360
2017-08-20T12:14:53.885Z,345
2017-08-20T12:15:53.970Z,330
2017-08-20T12:16:53.468Z,335
2017-08-20T12:17:54.085Z,340
2017-08-20T12:18:53.782Z,355
2017-08-20T12:19:53.775Z,380
2017-08-20T12:20:53.428Z,390
2017-08-20T12:21:53.741Z,400
2017-08-20T12:22:53.768Z,405
2017-08-20T12:23:53.421Z,410
2017-08-20T12:24:54.060Z,405
2017-08-20T12:25:53.759Z,395
2017-08-20T12:26:53.743Z,400
2017-08-20T12:27:53.738Z,410
2017-08-20T12:28:54.054Z,400
2017-08-20T12:29:53.740Z,390
2017-08-20T12:30:54.081Z,385
2017-08-20T12:31:53.725Z,375
2017-08-20T12:32:53.719Z,355
2017-08-20T12:33:54.208Z,340
2017-08-20T12:34:53.726Z,315
2017-08-20T12:35:53.712Z,290
2017-08-20T12:36:53.711Z,280
2017-08-20T12:37:53.740Z,275
2017-08-20T12:38:54.032Z,290
2017-08-20T12:39:53.753Z,310
2017-08-20T12:40:53.195Z,310
2017-08-20T12:41:53.416Z,300
2017-08-20T12:42:53.402Z,305
2017-08-20T12:43:53.064Z,325
2017-08-20T12:44:53.726Z,350
2017-08-20T12:45:53.759Z,365
2017-08-20T12:46:53.695Z,365
2017-08-20T12:47:53.708Z,370
2017-08-20T12:48:53.376Z,350
2017-08-20T12:49:53.682Z,325
2017-08-20T12:50:53.704Z,305
2017-08-20T12:51:53.731Z,300
2017-08-20T12:52:54.021Z,280
2017-08-20T12:53:54.013Z,270
2017-08-20T12:54:54.001Z,270
2017-08-20T12:55:53.363Z,280
2017-08-20T12:56:53.667Z,275
2017-08-20T12:57:53.741Z,260
2017-08-20T12:58:53.111Z,265
2017-08-20T12:59:53.342Z,250
2017-08-20T13:00:54.008Z,230
2017-08-20T13:01:53.685Z,215
2017-08-20T13:02:53.929Z,210
2017-08-20T13:03:53.987Z,210
2017-08-20T13:04:53.676Z,205
2017-08-20T13:05:53.358Z,205
2017-08-20T13:06:53.997Z,215
2017-08-20T13:07:53.658Z,210
2017-08-20T13:08:53.332Z,210
2017-08-20T13:09:53.641Z,225
2017-08-20T13:10:53.025Z,220
2017-08-20T13:11:53.657Z,225
2017-08-20T13:12:53.311Z,225
2017-08-20T13:13:53.651Z,225
2017-08-20T13:14:53.305Z,240
2017-08-20T13:15:53.326Z,255
2017-08-20T13:16:53.311Z,260
2017-08-20T13:17:53.616Z,265
2017-08-20T13:18:53.300Z,275
2017-08-20T13:19:53.824Z,280
2017-08-20T13:20:53.339Z,280
2017-08-20T13:21:53.939Z,285
2017-08-20T13:22:53.311Z,295
2017-08-20T13:23:52.961Z,305
2017-08-20T13:24:53.607Z,305
2017-08-20T13:25:53.297Z,295
2017-08-20T13:26:53.278Z,285
2017-08-20T13:27:53.925Z,285
2017-08-20T13:28:53.607Z,285
2017-08-20T13:29:53.270Z,300
2017-08-20T13:30:53.629Z,310
2017-08-20T13:31:53.606Z,305
2017-08-20T13:32:53.271Z,290
2017-08-20T13:33:53.582Z,275
2017-08-20T13:34:53.262Z,260
2017-08-20T13:35:53.598Z,250
2017-08-20T13:36:53.269Z,245
2017-08-20T13:37:53.252Z,230
2017-08-20T13:38:53.630Z,220
2017-08-20T13:39:52.618Z,205
2017-08-20T13:40:53.630Z,195
2017-08-20T13:41:52.925Z,185
2017-08-20T13:42:53.236Z,170
2017-08-20T13:43:53.270Z,160
2017-08-20T13:44:53.899Z,155
2017-08-20T13:45:53.905Z,150
2017-08-20T13:46:53.553Z,145
2017-08-20T13:47:53.557Z,135
2017-08-20T13:48:53.867Z,125
2017-08-20T13:49:52.924Z,105
2017-08-20T13:50:53.567Z,90
2017-08-20T13:51:53.220Z,70
2017-08-20T13:52:53.855Z,65
2017-08-20T13:53:53.853Z,70
2017-08-20T13:54:53.574Z,75
2017-08-20T13:55:53.871Z,80
2017-08-20T13:56:53.515Z,90
2017-08-20T13:57:52.880Z,105
2017-08-20T13:58:53.520Z,120
2017-08-20T13:59:53.511Z,135
2017-08-20T14:00:53.505Z,155
2017-08-20T14:01:53.557Z,170
2017-08-20T14:02:53.864Z,190
2017-08-20T14:03:53.495Z,215
2017-08-20T14:04:53.845Z,240
2017-08-20T14:05:53.509Z,255
2017-08-20T14:06:53.822Z,270